Time;durP1;ratioP1;P1;durP2;ratioP2;P2;SDS_P1;SDS_P2;PMS_P1;PMS_P2;Temp;Humidity;BMP_temperature;BMP_pressure;BME280_temperature;BME280_humidity;BME280_pressure;Samples;Min_cycle;Max_cycle;Signal;HPM_P1;HPM_P2
2023/10/31 00:00:16;;;;;;;10.15;6.47;;;;;;;11.04;100.00;99033.16;4947147;28;20039;-84
2023/10/31 00:02:41;;;;;;;13.63;7.43;;;;;;;10.98;100.00;99030.28;4916447;29;20491;-84
2023/10/31 00:05:06;;;;;;;12.57;7.10;;;;;;;10.98;100.00;99026.81;4933197;29;20046;-83
2023/10/31 00:07:32;;;;;;;20.73;7.10;;;;;;;10.88;100.00;99031.72;4931526;28;20055;-82
2023/10/31 00:09:57;;;;;;;17.63;7.60;;;;;;;10.77;100.00;99031.34;4931716;28;20287;-83
2023/10/31 00:12:22;;;;;;;17.43;8.33;;;;;;;10.86;100.00;99033.78;4926424;29;20031;-83
2023/10/31 00:14:48;;;;;;;16.30;7.53;;;;;;;10.94;100.00;99028.25;4931827;29;20043;-83
2023/10/31 00:17:13;;;;;;;13.40;8.10;;;;;;;10.93;100.00;99022.09;4915413;28;20153;-83
2023/10/31 00:19:38;;;;;;;17.10;7.33;;;;;;;11.01;100.00;99023.72;4947508;28;20058;-82
2023/10/31 00:22:05;;;;;;;20.73;9.67;;;;;;;10.85;100.00;99016.13;4947260;28;20127;-83
2023/10/31 00:24:32;;;;;;;19.63;9.25;;;;;;;10.87;100.00;99030.09;4940815;28;20028;-84
2023/10/31 00:26:57;;;;;;;15.80;8.40;;;;;;;10.99;100.00;99013.22;4933804;28;20046;-83
2023/10/31 00:29:22;;;;;;;20.92;9.27;;;;;;;11.08;100.00;99011.19;4931420;28;20028;-84
2023/10/31 00:31:48;;;;;;;13.37;7.70;;;;;;;11.13;100.00;98998.00;4931338;29;20526;-82
2023/10/31 00:34:13;;;;;;;16.17;8.87;;;;;;;11.04;100.00;98991.25;4931280;28;20070;-82
2023/10/31 00:36:39;;;;;;;13.37;8.53;;;;;;;11.13;100.00;98991.84;4915250;28;20090;-84
2023/10/31 00:39:04;;;;;;;16.67;8.53;;;;;;;11.17;100.00;98974.38;4931174;29;20510;-83
2023/10/31 00:41:30;;;;;;;12.23;8.07;;;;;;;11.18;100.00;98968.00;4931450;28;20595;-83
2023/10/31 00:43:55;;;;;;;21.95;8.18;;;;;;;11.19;100.00;98962.47;4947228;28;20036;-84
2023/10/31 00:46:21;;;;;;;17.40;8.13;;;;;;;11.20;100.00;98960.59;4930453;29;20019;-84
2023/10/31 00:48:46;;;;;;;16.73;8.83;;;;;;;11.19;100.00;98957.13;4930760;28;20070;-83
2023/10/31 00:51:12;;;;;;;16.67;8.98;;;;;;;11.19;100.00;98958.94;4929905;29;20066;-86
2023/10/31 00:53:37;;;;;;;16.63;8.35;;;;;;;11.21;100.00;98948.88;4931360;29;20556;-83
2023/10/31 00:56:03;;;;;;;15.03;7.93;;;;;;;11.12;100.00;98950.13;4931919;29;20028;-84
2023/10/31 00:58:29;;;;;;;12.88;8.00;;;;;;;11.13;100.00;98941.94;4915366;29;20023;-83
2023/10/31 01:00:54;;;;;;;18.87;10.73;;;;;;;11.12;100.00;98932.28;4915017;29;20023;-84
2023/10/31 01:03:20;;;;;;;17.20;9.57;;;;;;;11.04;100.00;98929.81;4946343;28;20075;-84
2023/10/31 01:05:45;;;;;;;20.97;9.00;;;;;;;11.07;100.00;98925.91;4946761;28;20035;-85
2023/10/31 01:08:11;;;;;;;17.97;9.17;;;;;;;11.12;100.00;98928.78;4937147;28;20515;-83
2023/10/31 01:10:36;;;;;;;17.00;9.65;;;;;;;10.89;100.00;98926.59;4930760;29;20032;-84
2023/10/31 01:13:02;;;;;;;23.67;10.43;;;;;;;10.91;100.00;98916.50;4941685;28;20036;-83
2023/10/31 01:15:27;;;;;;;21.10;10.60;;;;;;;10.97;100.00;98913.00;4914745;29;20033;-84
2023/10/31 01:17:52;;;;;;;18.33;10.43;;;;;;;10.89;100.00;98899.91;4930905;29;20479;-84
2023/10/31 01:20:18;;;;;;;19.07;10.43;;;;;;;10.87;100.00;98894.75;4931581;29;20522;-83
2023/10/31 01:22:43;;;;;;;20.45;11.07;;;;;;;11.00;100.00;98896.56;4930483;28;20122;-84
2023/10/31 01:25:10;;;;;;;21.43;10.50;;;;;;;10.93;100.00;98888.59;4903657;29;20044;-83
2023/10/31 01:27:35;;;;;;;23.35;11.20;;;;;;;10.92;100.00;98892.28;4908268;28;20106;-83
2023/10/31 01:30:01;;;;;;;16.30;9.93;;;;;;;10.94;100.00;98894.75;4933915;28;20044;-83
2023/10/31 01:32:27;;;;;;;25.33;11.35;;;;;;;10.91;100.00;98892.47;4904851;29;20498;-83
2023/10/31 01:34:54;;;;;;;21.50;13.68;;;;;;;10.83;100.00;98892.72;4915084;28;20039;-83
2023/10/31 01:37:20;;;;;;;26.43;12.10;;;;;;;10.94;100.00;98898.22;4929846;29;20031;-84
2023/10/31 01:39:46;;;;;;;17.70;11.68;;;;;;;10.94;100.00;98897.41;4914637;28;20032;-83
2023/10/31 01:42:17;;;;;;;26.20;12.75;;;;;;;10.87;100.00;98889.41;4946153;28;20514;-83
2023/10/31 01:44:43;;;;;;;19.70;13.05;;;;;;;10.78;100.00;98888.81;4930594;29;20082;-84
2023/10/31 01:47:08;;;;;;;19.73;11.63;;;;;;;10.74;100.00;98886.78;4930186;29;20023;-84
2023/10/31 01:49:36;;;;;;;19.97;11.63;;;;;;;10.75;100.00;98885.75;4937928;28;20042;-85
2023/10/31 01:52:02;;;;;;;22.77;12.98;;;;;;;10.67;100.00;98886.78;4914459;28;20031;-84
2023/10/31 01:54:29;;;;;;;21.58;12.52;;;;;;;10.72;100.00;98880.81;4930414;28;20399;-84
2023/10/31 01:56:57;;;;;;;20.48;11.48;;;;;;;10.85;100.00;98888.81;4930182;29;20085;-84
2023/10/31 01:59:27;;;;;;;20.70;11.05;;;;;;;10.90;100.00;98875.66;4929916;28;20090;-84
2023/10/31 02:01:53;;;;;;;22.33;10.48;;;;;;;10.86;100.00;98876.28;4914725;28;20028;-83
2023/10/31 02:04:18;;;;;;;15.23;10.07;;;;;;;10.94;100.00;98876.88;4917712;29;22659;-84
2023/10/31 02:06:44;;;;;;;21.27;10.98;;;;;;;10.82;100.00;98869.72;4917237;29;20031;-85
2023/10/31 02:09:09;;;;;;;23.23;10.50;;;;;;;10.86;100.00;98863.72;4917468;29;20478;-85
2023/10/31 02:11:35;;;;;;;20.50;10.40;;;;;;;11.03;100.00;98865.94;4940770;28;20042;-84
2023/10/31 02:14:01;;;;;;;21.25;11.02;;;;;;;10.95;100.00;98861.66;4917520;29;20050;-84
2023/10/31 02:16:27;;;;;;;16.45;9.35;;;;;;;11.04;100.00;98863.06;4933397;28;20059;-83
2023/10/31 02:18:53;;;;;;;18.05;9.30;;;;;;;10.98;100.00;98838.03;4931763;28;20051;-85
2023/10/31 02:21:20;;;;;;;20.42;8.75;;;;;;;10.93;100.00;98848.53;4933243;28;20549;-84
2023/10/31 02:24:02;;;;;;;14.07;8.40;;;;;;;10.94;100.00;98844.00;4933472;28;20031;-84
2023/10/31 02:26:29;;;;;;;14.40;8.30;;;;;;;10.85;100.00;98842.59;4926880;28;20032;-85
2023/10/31 02:28:55;;;;;;;16.77;8.68;;;;;;;10.84;100.00;98840.94;4933008;28;20395;-84
2023/10/31 02:31:20;;;;;;;14.73;8.07;;;;;;;10.99;100.00;98842.34;4949671;28;20032;-85
2023/10/31 02:33:46;;;;;;;10.97;7.87;;;;;;;11.02;100.00;98845.63;4933728;28;20515;-84
2023/10/31 02:36:12;;;;;;;14.88;7.32;;;;;;;11.01;100.00;98838.66;4933444;28;20038;-85
2023/10/31 02:38:37;;;;;;;15.40;8.00;;;;;;;11.02;100.00;98838.41;4933026;28;20032;-84
2023/10/31 02:41:03;;;;;;;16.50;8.80;;;;;;;10.92;100.00;98827.38;4912777;29;20085;-84
2023/10/31 02:43:28;;;;;;;13.50;8.07;;;;;;;11.01;100.00;98833.31;4949863;28;20039;-85
2023/10/31 02:45:53;;;;;;;11.77;7.40;;;;;;;11.05;100.00;98830.00;4918126;28;20024;-84
2023/10/31 02:48:20;;;;;;;13.40;7.28;;;;;;;10.97;100.00;98823.03;4917500;29;20407;-85
2023/10/31 02:50:45;;;;;;;14.07;7.93;;;;;;;10.87;100.00;98814.66;4933817;29;20107;-84
2023/10/31 02:53:11;;;;;;;16.92;7.93;;;;;;;10.78;100.00;98807.94;4918175;29;20503;-86
2023/10/31 02:55:39;;;;;;;13.35;8.20;;;;;;;10.69;100.00;98806.50;4918213;28;20027;-85
2023/10/31 02:58:05;;;;;;;11.17;7.93;;;;;;;10.64;100.00;98806.34;4932983;28;20032;-85
2023/10/31 03:00:30;;;;;;;16.77;9.27;;;;;;;10.63;100.00;98807.34;4949476;28;20484;-85
2023/10/31 03:02:55;;;;;;;17.70;9.13;;;;;;;10.61;100.00;98804.09;4931442;28;20395;-85
2023/10/31 03:05:21;;;;;;;10.38;7.63;;;;;;;10.66;100.00;98806.94;4948417;28;20395;-87
2023/10/31 03:07:46;;;;;;;15.23;9.15;;;;;;;10.59;100.00;98800.81;4932894;28;20027;-85
2023/10/31 03:10:12;;;;;;;17.20;9.53;;;;;;;10.38;100.00;98793.88;4929474;28;20126;-85
2023/10/31 03:12:37;;;;;;;12.80;7.77;;;;;;;10.50;100.00;98802.88;4932999;29;20087;-85
2023/10/31 03:15:03;;;;;;;15.53;9.10;;;;;;;10.65;100.00;98795.47;4932226;29;20031;-87
2023/10/31 03:17:29;;;;;;;14.35;8.00;;;;;;;10.68;100.00;98788.88;4930567;28;20726;-84
2023/10/31 03:19:55;;;;;;;14.93;8.45;;;;;;;10.57;100.00;98785.81;4934517;29;20214;-84
2023/10/31 03:22:21;;;;;;;13.43;8.48;;;;;;;10.62;100.00;98779.03;4928373;28;20082;-85
2023/10/31 03:24:46;;;;;;;14.60;9.65;;;;;;;10.57;100.00;98764.47;4930617;29;20046;-85
2023/10/31 03:27:11;;;;;;;15.70;8.50;;;;;;;10.55;100.00;98777.19;4931787;28;20032;-85
2023/10/31 03:29:37;;;;;;;13.63;8.17;;;;;;;10.47;100.00;98764.09;4916771;29;20593;-85
2023/10/31 03:32:04;;;;;;;18.17;9.03;;;;;;;10.62;100.00;98771.03;4930680;29;20367;-86
2023/10/31 03:34:30;;;;;;;14.02;9.65;;;;;;;10.64;100.00;98768.97;4909589;28;20089;-85
2023/10/31 03:36:56;;;;;;;14.88;8.50;;;;;;;10.57;100.00;98774.31;4926580;28;20024;-84
2023/10/31 03:39:24;;;;;;;18.03;9.53;;;;;;;10.44;100.00;98764.53;4916979;29;20130;-86
2023/10/31 03:41:49;;;;;;;18.20;8.95;;;;;;;10.62;100.00;98765.69;4932293;28;20082;-85
2023/10/31 03:44:15;;;;;;;20.67;10.23;;;;;;;10.69;100.00;98766.50;4948729;28;20031;-86
2023/10/31 03:46:40;;;;;;;12.90;8.33;;;;;;;10.50;100.00;98750.34;4916826;29;20031;-85
2023/10/31 03:49:07;;;;;;;21.97;10.83;;;;;;;10.51;100.00;98760.00;4948000;28;20492;-85
2023/10/31 03:51:33;;;;;;;14.52;9.38;;;;;;;10.62;100.00;98749.69;4934011;28;20066;-84
2023/10/31 03:53:59;;;;;;;17.65;10.05;;;;;;;10.56;100.00;98752.16;4932465;29;20039;-85
2023/10/31 03:56:24;;;;;;;13.27;9.07;;;;;;;10.67;100.00;98760.53;4929142;28;20399;-84
2023/10/31 03:58:50;;;;;;;17.30;9.57;;;;;;;10.65;100.00;98749.25;4926880;28;20035;-86
2023/10/31 04:01:16;;;;;;;16.00;9.52;;;;;;;10.64;100.00;98750.28;4927627;29;20043;-84
2023/10/31 04:03:42;;;;;;;16.50;9.47;;;;;;;10.51;100.00;98743.16;4916305;29;20180;-85
2023/10/31 04:06:07;;;;;;;14.93;8.85;;;;;;;10.55;100.00;98739.03;4914222;28;20035;-83
2023/10/31 04:08:32;;;;;;;15.33;9.33;;;;;;;10.59;100.00;98728.78;4931970;28;20071;-84
2023/10/31 04:10:58;;;;;;;22.57;10.47;;;;;;;10.64;100.00;98731.63;4931732;28;20125;-84
2023/10/31 04:13:23;;;;;;;16.93;9.70;;;;;;;10.58;100.00;98727.94;4939806;28;20034;-84
2023/10/31 04:16:07;;;;;;;17.65;10.70;;;;;;;10.63;100.00;98721.94;4933280;29;20194;-84
2023/10/31 04:18:51;;;;;;;17.23;9.73;;;;;;;10.66;100.00;98724.22;4932092;29;20046;-84
2023/10/31 04:21:36;;;;;;;16.77;10.68;;;;;;;10.46;100.00;98711.75;4946174;29;20439;-84
2023/10/31 04:24:20;;;;;;;20.30;11.38;;;;;;;10.48;100.00;98712.38;4945107;28;20510;-85
2023/10/31 04:27:04;;;;;;;16.55;11.27;;;;;;;10.61;100.00;98721.38;4931919;29;20590;-85
2023/10/31 04:29:48;;;;;;;22.83;11.98;;;;;;;10.52;100.00;98704.78;4932165;29;20050;-84
2023/10/31 04:32:32;;;;;;;21.30;11.38;;;;;;;10.66;100.00;98719.69;4932258;29;20047;-84
2023/10/31 04:35:16;;;;;;;25.05;11.73;;;;;;;10.65;100.00;98701.22;4932183;28;20082;-83
2023/10/31 04:38:00;;;;;;;20.73;12.07;;;;;;;10.62;100.00;98697.13;4932067;28;20075;-85
2023/10/31 04:40:44;;;;;;;17.00;11.52;;;;;;;10.66;100.00;98701.00;4932216;29;20093;-84
2023/10/31 04:43:28;;;;;;;22.35;12.20;;;;;;;10.74;100.00;98705.28;4933120;29;20080;-84
2023/10/31 04:46:12;;;;;;;17.50;12.00;;;;;;;10.76;100.00;98705.88;4929660;29;20059;-85
2023/10/31 04:48:56;;;;;;;23.52;12.75;;;;;;;10.75;100.00;98705.06;4925921;29;20590;-84
2023/10/31 04:51:40;;;;;;;17.42;11.27;;;;;;;10.79;100.00;98697.44;4926528;29;20082;-84
2023/10/31 04:54:24;;;;;;;25.45;12.45;;;;;;;10.76;100.00;98695.22;4934136;29;20058;-84
2023/10/31 04:57:08;;;;;;;19.17;13.20;;;;;;;10.87;100.00;98691.88;4931590;29;20105;-84
2023/10/31 04:59:54;;;;;;;18.60;12.52;;;;;;;10.76;100.00;98693.34;4931676;29;20086;-84
2023/10/31 05:02:38;;;;;;;24.05;12.88;;;;;;;10.75;100.00;98685.59;4924912;29;20054;-84
2023/10/31 05:05:22;;;;;;;21.73;11.73;;;;;;;10.74;100.00;98694.59;4932201;29;20419;-85
2023/10/31 05:08:06;;;;;;;25.30;13.63;;;;;;;10.77;100.00;98678.19;4931572;29;20097;-84
2023/10/31 05:10:49;;;;;;;26.58;13.25;;;;;;;10.76;100.00;98673.84;4931905;29;20049;-84
2023/10/31 05:13:34;;;;;;;19.25;11.50;;;;;;;10.82;100.00;98670.34;4932207;29;20178;-84
2023/10/31 05:16:18;;;;;;;17.92;11.77;;;;;;;10.86;100.00;98668.03;4930813;29;20121;-84
2023/10/31 05:19:04;;;;;;;19.77;11.43;;;;;;;10.97;100.00;98668.19;4929296;29;20055;-83
2023/10/31 05:21:48;;;;;;;16.70;10.82;;;;;;;10.93;100.00;98675.00;4927038;28;20529;-84
2023/10/31 05:24:32;;;;;;;15.30;11.18;;;;;;;10.88;100.00;98661.47;4925457;29;20522;-83
2023/10/31 05:27:16;;;;;;;16.02;11.20;;;;;;;11.02;100.00;98658.72;4945303;23;20535;-79
2023/10/31 05:30:00;;;;;;;17.17;11.15;;;;;;;11.05;100.00;98652.94;4911308;28;20147;-79
2023/10/31 05:32:44;;;;;;;19.35;12.38;;;;;;;11.03;100.00;98646.97;4897252;28;20043;-80
2023/10/31 05:35:27;;;;;;;20.92;11.85;;;;;;;10.97;100.00;98638.81;4900155;29;20100;-80
2023/10/31 05:38:11;;;;;;;22.17;12.32;;;;;;;11.07;100.00;98634.84;4920494;28;20078;-80
2023/10/31 05:40:55;;;;;;;17.77;11.75;;;;;;;11.08;100.00;98631.97;4896598;28;20465;-79
2023/10/31 05:43:40;;;;;;;20.80;13.13;;;;;;;11.10;100.00;98631.75;4885714;29;20048;-80
2023/10/31 05:46:24;;;;;;;26.05;14.13;;;;;;;10.93;100.00;98624.28;4894402;28;20051;-79
2023/10/31 05:49:08;;;;;;;26.60;13.82;;;;;;;10.98;100.00;98637.78;4886515;29;20048;-80
2023/10/31 05:51:53;;;;;;;17.00;11.82;;;;;;;11.02;100.00;98642.69;4911702;29;20055;-80
2023/10/31 05:54:36;;;;;;;20.63;12.70;;;;;;;11.02;100.00;98635.50;4894896;29;20044;-79
2023/10/31 05:57:20;;;;;;;20.60;12.20;;;;;;;11.02;100.00;98629.34;4891866;29;20128;-79
2023/10/31 06:00:05;;;;;;;22.95;13.82;;;;;;;11.10;100.00;98647.78;4898456;29;20477;-80
2023/10/31 06:02:49;;;;;;;12.27;8.23;;;;;;;11.13;100.00;98647.34;4895446;29;20128;-78
2023/10/31 06:05:33;;;;;;;20.50;12.23;;;;;;;11.10;100.00;98645.91;4893732;28;20289;-80
2023/10/31 06:08:17;;;;;;;21.42;12.65;;;;;;;11.13;100.00;98644.66;4904658;29;20052;-80
2023/10/31 06:11:01;;;;;;;21.52;13.15;;;;;;;11.16;100.00;98650.38;4904924;28;20059;-79
2023/10/31 06:13:47;;;;;;;29.25;15.23;;;;;;;11.14;100.00;98631.09;4887132;29;20066;-80
2023/10/31 06:16:32;;;;;;;20.23;12.40;;;;;;;11.22;100.00;98632.69;4905055;29;20055;-79
2023/10/31 06:19:16;;;;;;;49.38;16.40;;;;;;;11.23;100.00;98628.97;4912914;28;20059;-79
2023/10/31 06:21:59;;;;;;;30.45;14.63;;;;;;;11.16;100.00;98636.22;4892002;29;20055;-79
2023/10/31 06:24:43;;;;;;;21.77;12.30;;;;;;;11.25;100.00;98631.41;4899405;28;20571;-80
2023/10/31 06:27:27;;;;;;;24.67;13.40;;;;;;;11.28;100.00;98636.31;4891877;28;20111;-80
2023/10/31 06:30:12;;;;;;;22.67;12.43;;;;;;;11.25;100.00;98632.22;4893063;28;20051;-80
2023/10/31 06:32:56;;;;;;;21.75;12.50;;;;;;;11.26;100.00;98633.03;4891877;29;20414;-80
2023/10/31 06:35:40;;;;;;;23.35;13.43;;;;;;;11.22;100.00;98626.53;4905068;28;20040;-79
2023/10/31 06:38:24;;;;;;;21.08;12.95;;;;;;;11.26;100.00;98627.69;4904482;28;20115;-80
2023/10/31 06:41:08;;;;;;;20.77;12.95;;;;;;;11.33;100.00;98633.81;4891037;28;20048;-80
2023/10/31 06:43:52;;;;;;;21.25;13.25;;;;;;;11.34;100.00;98636.25;4904958;29;20586;-79
2023/10/31 06:46:36;;;;;;;24.17;13.48;;;;;;;11.32;100.00;98643.69;4897283;28;20106;-80
2023/10/31 06:49:01;;;;;;;30.53;15.13;;;;;;;11.28;100.00;98647.00;4891741;29;20119;-80
2023/10/31 06:51:27;;;;;;;24.57;13.27;;;;;;;11.32;100.00;98643.69;4894683;29;21612;-80
2023/10/31 06:53:52;;;;;;;26.30;14.53;;;;;;;11.25;100.00;98648.25;4894539;29;20277;-79
2023/10/31 06:56:18;;;;;;;21.73;12.63;;;;;;;11.35;100.00;98659.25;4912727;28;20292;-80
2023/10/31 06:58:43;;;;;;;29.17;14.20;;;;;;;11.31;100.00;98658.09;4895456;29;20036;-81
2023/10/31 07:01:08;;;;;;;29.83;14.57;;;;;;;11.25;100.00;98648.25;4939596;28;20072;-79
2023/10/31 07:03:34;;;;;;;27.17;15.13;;;;;;;11.25;100.00;98652.78;4878874;29;20028;-80
2023/10/31 07:05:59;;;;;;;28.40;15.20;;;;;;;11.30;100.00;98664.44;4894452;29;20041;-80
2023/10/31 07:08:24;;;;;;;31.60;15.27;;;;;;;11.38;100.00;98656.16;4893768;29;20409;-80
2023/10/31 07:10:50;;;;;;;31.13;16.13;;;;;;;11.33;100.00;98661.34;4894272;29;20068;-80
2023/10/31 07:13:16;;;;;;;41.93;17.63;;;;;;;11.41;100.00;98655.72;4894032;29;20056;-80
2023/10/31 07:15:42;;;;;;;35.13;17.48;;;;;;;11.50;100.00;98655.47;4909921;28;20033;-81
2023/10/31 07:18:07;;;;;;;29.48;15.38;;;;;;;11.41;100.00;98654.91;4894196;29;20482;-80
2023/10/31 07:20:33;;;;;;;43.83;19.07;;;;;;;11.50;100.00;98658.94;4896990;28;20425;-80
2023/10/31 07:22:58;;;;;;;33.47;16.33;;;;;;;11.56;100.00;98660.72;4878860;28;20127;-80
2023/10/31 07:25:23;;;;;;;59.80;18.17;;;;;;;11.45;100.00;98649.94;4878523;28;20544;-79
2023/10/31 07:27:49;;;;;;;28.90;15.60;;;;;;;11.53;100.00;98660.34;4893689;28;20130;-79
2023/10/31 07:30:17;;;;;;;47.23;17.20;;;;;;;11.61;100.00;98654.72;4909375;28;20071;-80
2023/10/31 07:32:43;;;;;;;34.55;16.30;;;;;;;11.70;100.00;98661.41;4910099;29;20024;-80
2023/10/31 07:35:08;;;;;;;41.07;19.30;;;;;;;11.78;100.00;98663.00;4910158;29;20094;-80
2023/10/31 07:37:33;;;;;;;28.10;14.77;;;;;;;11.80;100.00;98658.25;4970097;28;20399;-81
2023/10/31 07:39:59;;;;;;;38.40;15.57;;;;;;;11.68;100.00;98646.63;4922522;28;20028;-79
2023/10/31 07:42:24;;;;;;;24.80;12.50;;;;;;;11.71;100.00;98644.34;4909669;29;20131;-80
2023/10/31 07:44:50;;;;;;;33.70;14.47;;;;;;;11.81;100.00;98650.00;4912633;29;20037;-80
2023/10/31 07:47:16;;;;;;;36.22;14.38;;;;;;;11.79;100.00;98654.75;4880441;29;20385;-81
2023/10/31 07:49:41;;;;;;;20.83;11.63;;;;;;;11.84;100.00;98654.09;4893747;29;20041;-80
2023/10/31 07:52:07;;;;;;;20.30;11.07;;;;;;;11.83;100.00;98658.63;4887639;28;20120;-80
2023/10/31 07:54:32;;;;;;;24.40;12.17;;;;;;;11.79;100.00;98646.72;4909070;29;20509;-81
2023/10/31 07:56:57;;;;;;;40.60;14.80;;;;;;;11.75;100.00;98648.22;4877916;29;20444;-80
2023/10/31 07:59:23;;;;;;;41.83;14.53;;;;;;;11.77;100.00;98648.81;4895005;28;20116;-80
2023/10/31 08:01:48;;;;;;;58.40;15.67;;;;;;;11.70;100.00;98650.72;4905235;28;20075;-80
2023/10/31 08:04:15;;;;;;;33.07;14.30;;;;;;;11.73;100.00;98644.97;4877774;29;20119;-80
2023/10/31 08:06:40;;;;;;;34.65;13.48;;;;;;;11.76;100.00;98644.50;4892990;28;20036;-79
2023/10/31 08:09:06;;;;;;;40.57;14.77;;;;;;;11.73;100.00;98644.97;4914777;29;20082;-80
2023/10/31 08:11:32;;;;;;;36.30;14.85;;;;;;;11.82;100.00;98648.13;4899827;28;20313;-81
2023/10/31 08:13:57;;;;;;;62.63;15.73;;;;;;;11.81;100.00;98651.88;4879364;29;20067;-80
2023/10/31 08:16:23;;;;;;;52.97;14.63;;;;;;;11.83;100.00;98644.44;4885384;28;20095;-80
2023/10/31 08:18:48;;;;;;;50.00;15.97;;;;;;;11.84;100.00;98635.38;4911966;29;20039;-81
2023/10/31 08:21:14;;;;;;;30.52;13.23;;;;;;;11.84;100.00;98641.53;4914624;28;20052;-80
2023/10/31 08:23:39;;;;;;;39.37;13.30;;;;;;;11.87;100.00;98648.34;4877627;29;20032;-81
2023/10/31 08:26:04;;;;;;;55.00;15.33;;;;;;;11.79;100.00;98649.41;4893072;29;20037;-81
2023/10/31 08:28:30;;;;;;;30.97;13.00;;;;;;;11.82;100.00;98653.47;4892725;29;20118;-81
2023/10/31 08:30:56;;;;;;;33.60;12.70;;;;;;;11.78;100.00;98658.47;4908865;28;20032;-81
2023/10/31 08:33:24;;;;;;;30.55;11.98;;;;;;;11.79;100.00;98649.41;4893146;29;20698;-80
2023/10/31 08:35:50;;;;;;;34.20;12.68;;;;;;;11.86;100.00;98648.53;4893140;28;20633;-81
2023/10/31 08:38:16;;;;;;;29.65;11.52;;;;;;;11.84;100.00;98646.06;4876963;29;20039;-81
2023/10/31 08:40:42;;;;;;;29.48;10.75;;;;;;;11.87;100.00;98645.66;4885952;28;20432;-81
2023/10/31 08:43:07;;;;;;;33.10;12.27;;;;;;;11.80;100.00;98640.34;4893136;28;20036;-81
2023/10/31 08:45:33;;;;;;;22.47;9.67;;;;;;;11.75;100.00;98653.56;4892151;28;20929;-81
2023/10/31 08:47:59;;;;;;;25.80;10.77;;;;;;;11.66;100.00;98646.88;4877106;29;20160;-80
2023/10/31 08:50:25;;;;;;;30.42;10.68;;;;;;;11.63;100.00;98644.63;4876748;28;20405;-81
2023/10/31 08:52:50;;;;;;;35.23;11.10;;;;;;;11.65;100.00;98642.56;4893051;29;20041;-80
2023/10/31 08:55:16;;;;;;;24.13;10.53;;;;;;;11.78;100.00;98657.66;4908680;29;20028;-81
2023/10/31 08:57:41;;;;;;;20.30;9.77;;;;;;;11.65;100.00;98650.56;4908262;28;20025;-81
2023/10/31 09:00:07;;;;;;;20.70;8.80;;;;;;;11.70;100.00;98656.06;4911021;29;20028;-80
2023/10/31 09:02:33;;;;;;;18.58;9.07;;;;;;;11.77;100.00;98661.34;4893494;28;20077;-81
2023/10/31 09:05:02;;;;;;;20.80;9.07;;;;;;;11.74;100.00;98665.28;4893068;29;20051;-81
2023/10/31 09:07:27;;;;;;;15.00;7.32;;;;;;;11.62;100.00;98661.72;4892392;29;20398;-79
2023/10/31 09:09:53;;;;;;;11.37;5.67;;;;;;;11.57;100.00;98661.56;4907655;28;20040;-79
2023/10/31 09:12:18;;;;;;;11.10;5.27;;;;;;;11.54;100.00;98670.00;4889264;29;20029;-80
2023/10/31 09:14:43;;;;;;;10.80;4.97;;;;;;;11.46;100.00;98670.28;4908752;28;20035;-80
2023/10/31 09:17:09;;;;;;;9.70;4.77;;;;;;;11.51;100.00;98675.78;4900325;29;20040;-81
2023/10/31 09:19:34;;;;;;;9.47;4.77;;;;;;;11.50;100.00;98676.84;4907777;28;20108;-80
2023/10/31 09:21:59;;;;;;;6.80;3.77;;;;;;;11.52;100.00;98675.59;4884556;28;20051;-80
2023/10/31 09:24:25;;;;;;;7.20;4.20;;;;;;;11.43;100.00;98674.22;4890903;28;20039;-80
2023/10/31 09:26:50;;;;;;;7.60;3.50;;;;;;;11.35;100.00;98680.63;4911476;28;20028;-81
2023/10/31 09:29:15;;;;;;;7.27;3.80;;;;;;;11.33;100.00;98676.53;4876883;28;20490;-81
2023/10/31 09:31:43;;;;;;;3.20;2.43;;;;;;;11.50;100.00;98688.34;4899791;29;20029;-80
2023/10/31 09:34:09;;;;;;;4.40;2.58;;;;;;;11.41;100.00;98686.97;4908016;29;20056;-79
2023/10/31 09:36:35;;;;;;;4.13;2.75;;;;;;;11.52;100.00;98690.78;4915351;28;20054;-81
2023/10/31 09:39:01;;;;;;;3.63;2.58;;;;;;;11.45;100.00;98680.16;4876589;29;20043;-81
2023/10/31 09:41:27;;;;;;;3.00;1.88;;;;;;;11.30;100.00;98688.47;4892759;29;20155;-81
2023/10/31 09:43:53;;;;;;;1.08;0.77;;;;;;;11.23;100.00;98686.91;4892412;29;20132;-82
2023/10/31 09:46:18;;;;;;;0.85;0.60;;;;;;;11.08;100.00;98689.91;4892032;28;20049;-81
2023/10/31 09:48:44;;;;;;;1.37;0.57;;;;;;;11.03;100.00;98695.03;4903761;28;20036;-81
2023/10/31 09:51:12;;;;;;;1.10;1.00;;;;;;;11.13;100.00;98698.06;4900015;28;20041;-81
2023/10/31 09:53:39;;;;;;;2.50;0.70;;;;;;;11.04;100.00;98715.38;4895383;28;20064;-81
2023/10/31 09:56:06;;;;;;;1.95;0.70;;;;;;;10.99;100.00;98708.84;4926987;28;20031;-81
2023/10/31 09:58:31;;;;;;;2.25;0.70;;;;;;;10.95;100.00;98723.63;4892514;28;20043;-81
2023/10/31 10:00:57;;;;;;;1.25;0.50;;;;;;;10.95;100.00;98722.81;4888775;29;20124;-81
2023/10/31 10:03:23;;;;;;;0.95;0.60;;;;;;;10.92;100.00;98726.75;4904369;28;20055;-81
2023/10/31 10:05:49;;;;;;;1.17;0.40;;;;;;;10.74;100.00;98727.44;4893394;28;20123;-81
2023/10/31 10:08:15;;;;;;;2.30;0.70;;;;;;;10.76;100.00;98744.06;4915656;28;20112;-80
2023/10/31 10:10:40;;;;;;;1.00;0.52;;;;;;;10.56;100.00;98740.69;4907490;29;20051;-80
2023/10/31 10:13:06;;;;;;;0.77;0.50;;;;;;;10.43;100.00;98754.88;4914503;29;20482;-80
2023/10/31 10:15:52;;;;;;;2.47;0.40;;;;;;;10.47;100.00;98769.44;4908747;29;20422;-81
2023/10/31 10:18:35;;;;;;;0.32;0.30;;;;;;;10.13;100.00;98752.66;4891800;29;20032;-80
2023/10/31 10:21:05;;;;;;;0.28;0.28;;;;;;;10.26;100.00;98783.00;4891947;28;20048;-81
2023/10/31 10:23:31;;;;;;;0.20;0.20;;;;;;;10.29;100.00;98793.28;4877652;28;20465;-81
2023/10/31 10:25:58;;;;;;;0.35;0.20;;;;;;;10.06;100.00;98786.50;4880504;29;20028;-81
2023/10/31 10:28:24;;;;;;;0.28;0.13;;;;;;;9.90;100.00;98797.59;4919026;28;20044;-80
2023/10/31 10:30:50;;;;;;;1.90;0.13;;;;;;;9.82;100.00;98816.47;4879963;29;20056;-80
2023/10/31 10:33:16;;;;;;;;;;;;;;;9.85;100.00;98840.03;4895826;29;20071;-80
2023/10/31 10:35:42;;;;;;;0.73;0.30;;;;;;;9.78;100.00;98844.53;4897508;29;20014;-79
2023/10/31 10:38:15;;;;;;;2.10;0.70;;;;;;;9.70;100.00;98857.03;4882988;29;20504;-79
2023/10/31 10:40:43;;;;;;;2.08;0.22;;;;;;;9.53;100.00;98861.13;4891767;28;20063;-79
2023/10/31 10:43:13;;;;;;;1.92;0.25;;;;;;;9.26;100.00;98855.72;4883561;29;20127;-78
2023/10/31 10:45:43;;;;;;;0.68;0.60;;;;;;;9.16;100.00;98873.91;4883933;28;20036;-79
2023/10/31 10:48:12;;;;;;;2.13;0.30;;;;;;;9.21;100.00;98892.75;4948581;28;20118;-79
2023/10/31 10:50:42;;;;;;;1.83;0.68;;;;;;;8.91;100.00;98899.38;4896991;28;20508;-79
2023/10/31 10:53:18;;;;;;;3.67;0.40;;;;;;;8.97;100.00;98909.25;4879810;29;20119;-78
2023/10/31 10:55:46;;;;;;;1.25;0.55;;;;;;;9.02;100.00;98914.81;4911529;29;20036;-79
2023/10/31 10:58:36;;;;;;;1.15;0.63;;;;;;;8.90;100.00;98927.00;4916123;29;20480;-79
2023/10/31 11:01:04;;;;;;;2.08;0.30;;;;;;;8.93;100.00;98927.44;4892471;29;20406;-78
2023/10/31 11:03:29;;;;;;;1.75;0.40;;;;;;;8.91;100.00;98936.66;4897184;28;20035;-79
2023/10/31 11:05:55;;;;;;;1.92;0.60;;;;;;;8.86;100.00;98938.03;4911503;28;20036;-78
2023/10/31 11:08:23;;;;;;;0.20;0.10;;;;;;;8.69;100.00;98941.22;4894334;28;20138;-78
2023/10/31 11:10:50;;;;;;;0.20;0.10;;;;;;;8.60;100.00;98943.19;4879298;29;20421;-79
2023/10/31 11:13:16;;;;;;;0.30;0.10;;;;;;;8.36;100.00;98939.09;4878915;28;20493;-78
2023/10/31 11:15:43;;;;;;;0.25;0.17;;;;;;;8.43;100.00;98964.75;4895550;29;20031;-79
2023/10/31 11:18:10;;;;;;;0.75;0.20;;;;;;;8.41;100.00;98977.44;4909984;29;20039;-78
2023/10/31 11:20:39;;;;;;;0.55;0.30;;;;;;;8.45;100.00;98978.69;4894514;28;20029;-79
2023/10/31 11:23:06;;;;;;;1.92;0.28;;;;;;;8.31;100.00;98978.72;4879447;29;20476;-79
2023/10/31 11:25:32;;;;;;;0.98;0.30;;;;;;;8.41;100.00;98997.88;4878684;29;20052;-79
2023/10/31 11:28:10;;;;;;;;;;;;;;;8.20;100.00;99001.34;4895181;28;20037;-80